sensor_id;sensor_type;location;lat;lon;timestamp;pressure;altitude;pressure_sealevel;temperature;humidity
10127;BME280;13080;42.608;23.362;2023-03-01T00:01:53;152149.69;;;4.14;100.00
10127;BME280;13080;42.608;23.362;2023-03-01T00:04:20;152150.97;;;4.14;100.00
10127;BME280;13080;42.608;23.362;2023-03-01T00:06:48;152147.13;;;4.13;100.00
10127;BME280;13080;42.608;23.362;2023-03-01T00:09:15;152141.97;;;4.11;100.00
10127;BME280;13080;42.608;23.362;2023-03-01T00:11:42;152121.28;;;4.03;100.00
10127;BME280;13080;42.608;23.362;2023-03-01T00:14:09;152131.63;;;4.07;100.00
10127;BME280;13080;42.608;23.362;2023-03-01T00:16:37;152122.56;;;4.03;100.00
10127;BME280;13080;42.608;23.362;2023-03-01T00:19:05;152125.16;;;4.04;100.00
10127;BME280;13080;42.608;23.362;2023-03-01T00:21:32;152116.09;;;4.01;100.00
10127;BME280;13080;42.608;23.362;2023-03-01T00:24:02;152130.34;;;4.06;100.00
10127;BME280;13080;42.608;23.362;2023-03-01T00:26:29;152123.88;;;4.04;100.00
10127;BME280;13080;42.608;23.362;2023-03-01T00:28:57;152134.19;;;4.08;100.00
10127;BME280;13080;42.608;23.362;2023-03-01T00:31:26;152113.53;;;4.00;100.00
10127;BME280;13080;42.608;23.362;2023-03-01T00:33:53;152138.06;;;4.09;100.00
10127;BME280;13080;42.608;23.362;2023-03-01T00:36:23;152126.44;;;4.05;100.00
10127;BME280;13080;42.608;23.362;2023-03-01T00:38:50;152143.25;;;4.11;100.00
10127;BME280;13080;42.608;23.362;2023-03-01T00:41:20;152136.78;;;4.09;100.00
10127;BME280;13080;42.608;23.362;2023-03-01T00:43:48;152131.63;;;4.07;100.00
10127;BME280;13080;42.608;23.362;2023-03-01T00:46:17;152130.34;;;4.06;100.00
10127;BME280;13080;42.608;23.362;2023-03-01T00:48:44;152132.91;;;4.07;100.00
10127;BME280;13080;42.608;23.362;2023-03-01T00:51:13;152140.69;;;4.10;100.00
10127;BME280;13080;42.608;23.362;2023-03-01T00:53:41;152131.63;;;4.07;100.00
10127;BME280;13080;42.608;23.362;2023-03-01T00:56:10;152147.13;;;4.13;100.00
10127;BME280;13080;42.608;23.362;2023-03-01T00:58:38;152140.69;;;4.10;100.00
10127;BME280;13080;42.608;23.362;2023-03-01T01:01:09;152139.34;;;4.10;100.00
10127;BME280;13080;42.608;23.362;2023-03-01T01:03:43;152132.91;;;4.07;100.00
10127;BME280;13080;42.608;23.362;2023-03-01T01:06:14;152134.19;;;4.08;100.00
10127;BME280;13080;42.608;23.362;2023-03-01T01:08:41;152109.66;;;3.98;100.00
10127;BME280;13080;42.608;23.362;2023-03-01T01:11:08;152116.09;;;4.01;100.00
10127;BME280;13080;42.608;23.362;2023-03-01T01:13:36;152104.47;;;3.96;100.00
10127;BME280;13080;42.608;23.362;2023-03-01T01:16:05;152098.03;;;3.93;100.00
10127;BME280;13080;42.608;23.362;2023-03-01T01:18:32;152078.66;;;3.86;100.00
10127;BME280;13080;42.608;23.362;2023-03-01T01:21:03;152048.91;;;3.74;100.00
10127;BME280;13080;42.608;23.362;2023-03-01T01:23:30;152068.31;;;3.82;100.00
10127;BME280;13080;42.608;23.362;2023-03-01T01:25:57;152054.09;;;3.76;100.00
10127;BME280;13080;42.608;23.362;2023-03-01T01:28:24;152041.19;;;3.71;100.00
10127;BME280;13080;42.608;23.362;2023-03-01T01:30:50;152054.09;;;3.76;100.00
10127;BME280;13080;42.608;23.362;2023-03-01T01:33:19;152056.69;;;3.77;100.00
10127;BME280;13080;42.608;23.362;2023-03-01T01:35:45;152048.91;;;3.74;100.00
10127;BME280;13080;42.608;23.362;2023-03-01T01:38:12;152048.91;;;3.74;100.00
10127;BME280;13080;42.608;23.362;2023-03-01T01:40:43;152046.34;;;3.73;100.00
10127;BME280;13080;42.608;23.362;2023-03-01T01:43:18;152059.25;;;3.78;100.00
10127;BME280;13080;42.608;23.362;2023-03-01T01:45:45;152025.66;;;3.65;100.00
10127;BME280;13080;42.608;23.362;2023-03-01T01:48:15;152024.38;;;3.64;100.00
10127;BME280;13080;42.608;23.362;2023-03-01T01:50:44;152038.56;;;3.70;100.00
10127;BME280;13080;42.608;23.362;2023-03-01T01:53:15;152025.66;;;3.65;100.00
10127;BME280;13080;42.608;23.362;2023-03-01T01:55:47;152038.56;;;3.70;100.00
10127;BME280;13080;42.608;23.362;2023-03-01T01:58:18;152023.09;;;3.64;100.00
10127;BME280;13080;42.608;23.362;2023-03-01T02:00:45;152045.06;;;3.72;100.00
10127;BME280;13080;42.608;23.362;2023-03-01T02:03:14;152019.22;;;3.62;100.00
10127;BME280;13080;42.608;23.362;2023-03-01T02:05:47;152023.09;;;3.64;100.00
10127;BME280;13080;42.608;23.362;2023-03-01T02:08:19;152024.38;;;3.64;100.00
10127;BME280;13080;42.608;23.362;2023-03-01T02:10:46;152025.66;;;3.65;100.00
10127;BME280;13080;42.608;23.362;2023-03-01T02:13:15;152028.28;;;3.66;100.00
10127;BME280;13080;42.608;23.362;2023-03-01T02:15:42;152034.72;;;3.68;100.00
10127;BME280;13080;42.608;23.362;2023-03-01T02:18:12;152036.00;;;3.69;100.00
10127;BME280;13080;42.608;23.362;2023-03-01T02:20:48;152006.31;;;3.57;100.00
10127;BME280;13080;42.608;23.362;2023-03-01T02:23:17;152007.59;;;3.58;100.00
10127;BME280;13080;42.608;23.362;2023-03-01T02:25:51;152032.13;;;3.67;100.00
10127;BME280;13080;42.608;23.362;2023-03-01T02:28:25;152020.50;;;3.63;100.00
10127;BME280;13080;42.608;23.362;2023-03-01T02:30:52;152014.03;;;3.60;100.00
10127;BME280;13080;42.608;23.362;2023-03-01T02:33:38;152019.22;;;3.62;100.00
10127;BME280;13080;42.608;23.362;2023-03-01T02:36:09;152029.56;;;3.66;100.00
10127;BME280;13080;42.608;23.362;2023-03-01T02:38:38;152011.47;;;3.59;100.00
10127;BME280;13080;42.608;23.362;2023-03-01T02:41:07;152002.44;;;3.56;100.00
10127;BME280;13080;42.608;23.362;2023-03-01T02:43:35;152016.66;;;3.61;100.00
10127;BME280;13080;42.608;23.362;2023-03-01T02:46:08;152012.75;;;3.60;100.00
10127;BME280;13080;42.608;23.362;2023-03-01T02:48:43;152008.88;;;3.58;100.00
10127;BME280;13080;42.608;23.362;2023-03-01T02:51:25;152023.09;;;3.64;100.00
10127;BME280;13080;42.608;23.362;2023-03-01T02:54:06;152006.31;;;3.57;100.00
10127;BME280;13080;42.608;23.362;2023-03-01T02:56:34;152017.94;;;3.62;100.00
10127;BME280;13080;42.608;23.362;2023-03-01T02:59:03;152011.47;;;3.59;100.00
10127;BME280;13080;42.608;23.362;2023-03-01T03:01:30;152019.22;;;3.62;100.00
10127;BME280;13080;42.608;23.362;2023-03-01T03:04:04;152021.81;;;3.63;100.00
10127;BME280;13080;42.608;23.362;2023-03-01T03:06:31;152036.00;;;3.69;100.00
10127;BME280;13080;42.608;23.362;2023-03-01T03:08:57;152028.28;;;3.66;100.00
10127;BME280;13080;42.608;23.362;2023-03-01T03:11:24;152020.50;;;3.63;100.00
10127;BME280;13080;42.608;23.362;2023-03-01T03:13:51;152016.66;;;3.61;100.00
10127;BME280;13080;42.608;23.362;2023-03-01T03:16:20;152016.66;;;3.61;100.00
10127;BME280;13080;42.608;23.362;2023-03-01T03:18:46;152007.59;;;3.58;100.00
10127;BME280;13080;42.608;23.362;2023-03-01T03:21:14;152015.31;;;3.61;100.00
10127;BME280;13080;42.608;23.362;2023-03-01T03:23:41;152008.88;;;3.58;100.00
10127;BME280;13080;42.608;23.362;2023-03-01T03:26:08;152008.88;;;3.58;100.00
10127;BME280;13080;42.608;23.362;2023-03-01T03:28:40;152002.44;;;3.56;100.00
10127;BME280;13080;42.608;23.362;2023-03-01T03:31:07;152007.59;;;3.58;100.00
10127;BME280;13080;42.608;23.362;2023-03-01T03:33:35;152012.75;;;3.60;100.00
10127;BME280;13080;42.608;23.362;2023-03-01T03:36:03;152017.94;;;3.62;100.00
10127;BME280;13080;42.608;23.362;2023-03-01T03:38:30;152017.94;;;3.62;100.00
10127;BME280;13080;42.608;23.362;2023-03-01T03:41:02;151998.53;;;3.54;100.00
10127;BME280;13080;42.608;23.362;2023-03-01T03:43:30;152001.16;;;3.55;100.00
10127;BME280;13080;42.608;23.362;2023-03-01T03:45:57;152023.09;;;3.64;100.00
10127;BME280;13080;42.608;23.362;2023-03-01T03:48:24;152030.84;;;3.67;100.00
10127;BME280;13080;42.608;23.362;2023-03-01T03:50:54;152032.13;;;3.67;100.00
10127;BME280;13080;42.608;23.362;2023-03-01T03:53:23;152023.09;;;3.64;100.00
10127;BME280;13080;42.608;23.362;2023-03-01T03:55:50;152019.22;;;3.62;100.00
10127;BME280;13080;42.608;23.362;2023-03-01T03:58:18;152008.88;;;3.58;100.00
10127;BME280;13080;42.608;23.362;2023-03-01T04:00:50;151990.81;;;3.51;100.00
10127;BME280;13080;42.608;23.362;2023-03-01T04:03:19;151992.09;;;3.51;100.00
10127;BME280;13080;42.608;23.362;2023-03-01T04:05:46;151983.06;;;3.48;100.00
10127;BME280;13080;42.608;23.362;2023-03-01T04:08:17;151989.53;;;3.50;100.00
10127;BME280;13080;42.608;23.362;2023-03-01T04:10:47;151994.69;;;3.52;100.00
10127;BME280;13080;42.608;23.362;2023-03-01T04:13:16;151980.47;;;3.47;100.00
10127;BME280;13080;42.608;23.362;2023-03-01T04:15:45;151977.91;;;3.46;100.00
10127;BME280;13080;42.608;23.362;2023-03-01T04:18:13;151976.63;;;3.45;100.00
10127;BME280;13080;42.608;23.362;2023-03-01T04:20:40;151967.56;;;3.42;100.00
10127;BME280;13080;42.608;23.362;2023-03-01T04:23:09;151952.06;;;3.36;100.00
10127;BME280;13080;42.608;23.362;2023-03-01T04:25:41;151950.78;;;3.35;100.00
10127;BME280;13080;42.608;23.362;2023-03-01T04:28:09;151949.50;;;3.35;100.00
10127;BME280;13080;42.608;23.362;2023-03-01T04:30:36;151937.88;;;3.30;100.00
10127;BME280;13080;42.608;23.362;2023-03-01T04:33:04;151927.53;;;3.26;100.00
10127;BME280;13080;42.608;23.362;2023-03-01T04:35:31;151939.16;;;3.30;100.00
10127;BME280;13080;42.608;23.362;2023-03-01T04:37:58;151944.31;;;3.32;100.00
10127;BME280;13080;42.608;23.362;2023-03-01T04:40:25;151948.16;;;3.34;100.00
10127;BME280;13080;42.608;23.362;2023-03-01T04:42:53;151944.31;;;3.32;100.00
10127;BME280;13080;42.608;23.362;2023-03-01T04:45:20;151932.69;;;3.28;100.00
10127;BME280;13080;42.608;23.362;2023-03-01T04:47:47;151927.53;;;3.26;100.00
10127;BME280;13080;42.608;23.362;2023-03-01T04:50:16;151937.88;;;3.30;100.00
10127;BME280;13080;42.608;23.362;2023-03-01T04:52:46;151936.53;;;3.29;100.00
10127;BME280;13080;42.608;23.362;2023-03-01T04:55:13;151945.59;;;3.33;100.00
10127;BME280;13080;42.608;23.362;2023-03-01T04:57:40;151928.81;;;3.26;100.00
10127;BME280;13080;42.608;23.362;2023-03-01T05:00:11;151922.38;;;3.24;100.00
10127;BME280;13080;42.608;23.362;2023-03-01T05:02:47;151897.84;;;3.14;100.00
10127;BME280;13080;42.608;23.362;2023-03-01T05:05:19;151893.97;;;3.12;100.00
10127;BME280;13080;42.608;23.362;2023-03-01T05:07:46;151919.75;;;3.23;100.00
10127;BME280;13080;42.608;23.362;2023-03-01T05:10:13;151914.63;;;3.21;100.00
10127;BME280;13080;42.608;23.362;2023-03-01T05:12:39;151932.69;;;3.28;100.00
10127;BME280;13080;42.608;23.362;2023-03-01T05:15:08;151944.31;;;3.32;100.00
10127;BME280;13080;42.608;23.362;2023-03-01T05:17:35;151945.59;;;3.33;100.00
10127;BME280;13080;42.608;23.362;2023-03-01T05:20:03;151963.69;;;3.40;100.00
10127;BME280;13080;42.608;23.362;2023-03-01T05:22:33;151957.22;;;3.38;100.00
10127;BME280;13080;42.608;23.362;2023-03-01T05:24:59;151977.91;;;3.46;100.00
10127;BME280;13080;42.608;23.362;2023-03-01T05:27:26;151967.56;;;3.42;100.00
10127;BME280;13080;42.608;23.362;2023-03-01T05:29:53;151963.69;;;3.40;100.00
10127;BME280;13080;42.608;23.362;2023-03-01T05:32:21;151971.44;;;3.43;100.00
10127;BME280;13080;42.608;23.362;2023-03-01T05:34:48;151984.34;;;3.48;100.00
10127;BME280;13080;42.608;23.362;2023-03-01T05:37:15;151981.75;;;3.47;100.00
10127;BME280;13080;42.608;23.362;2023-03-01T05:39:41;151984.34;;;3.48;100.00
10127;BME280;13080;42.608;23.362;2023-03-01T05:42:10;151995.97;;;3.53;100.00
10127;BME280;13080;42.608;23.362;2023-03-01T05:44:37;152001.16;;;3.55;100.00
10127;BME280;13080;42.608;23.362;2023-03-01T05:47:04;152026.94;;;3.65;100.00
10127;BME280;13080;42.608;23.362;2023-03-01T05:49:33;152026.94;;;3.65;100.00
10127;BME280;13080;42.608;23.362;2023-03-01T05:52:00;152023.09;;;3.64;100.00
10127;BME280;13080;42.608;23.362;2023-03-01T05:54:26;152033.44;;;3.68;100.00
10127;BME280;13080;42.608;23.362;2023-03-01T05:56:53;152045.06;;;3.72;100.00
10127;BME280;13080;42.608;23.362;2023-03-01T05:59:20;152070.88;;;3.83;100.00
10127;BME280;13080;42.608;23.362;2023-03-01T06:01:46;152098.03;;;3.93;100.00
10127;BME280;13080;42.608;23.362;2023-03-01T06:04:13;152082.50;;;3.87;100.00
10127;BME280;13080;42.608;23.362;2023-03-01T06:06:41;152067.03;;;3.81;99.87
10127;BME280;13080;42.608;23.362;2023-03-01T06:09:08;152074.78;;;3.84;99.29
10127;BME280;13080;42.608;23.362;2023-03-01T06:11:36;152091.56;;;3.91;100.00
10127;BME280;13080;42.608;23.362;2023-03-01T06:14:03;152110.94;;;3.99;99.99
10127;BME280;13080;42.608;23.362;2023-03-01T06:16:31;152121.28;;;4.03;98.38
10127;BME280;13080;42.608;23.362;2023-03-01T06:18:59;152130.34;;;4.06;98.07
10127;BME280;13080;42.608;23.362;2023-03-01T06:21:26;152134.19;;;4.08;98.39
10127;BME280;13080;42.608;23.362;2023-03-01T06:23:54;152157.47;;;4.17;98.33
10127;BME280;13080;42.608;23.362;2023-03-01T06:26:21;152184.59;;;4.28;97.64
10127;BME280;13080;42.608;23.362;2023-03-01T06:28:48;152202.72;;;4.35;97.31
10127;BME280;13080;42.608;23.362;2023-03-01T06:31:14;152198.81;;;4.33;97.29
10127;BME280;13080;42.608;23.362;2023-03-01T06:33:41;152194.94;;;4.32;96.97
10127;BME280;13080;42.608;23.362;2023-03-01T06:36:10;152201.38;;;4.34;97.29
10127;BME280;13080;42.608;23.362;2023-03-01T06:38:36;152225.97;;;4.44;96.90
10127;BME280;13080;42.608;23.362;2023-03-01T06:41:05;152258.25;;;4.57;97.62
10127;BME280;13080;42.608;23.362;2023-03-01T06:43:32;152280.25;;;4.66;97.03
10127;BME280;13080;42.608;23.362;2023-03-01T06:45:58;152291.88;;;4.70;96.74
10127;BME280;13080;42.608;23.362;2023-03-01T06:48:25;152290.59;;;4.70;97.13
10127;BME280;13080;42.608;23.362;2023-03-01T06:50:52;152295.78;;;4.72;96.90
10127;BME280;13080;42.608;23.362;2023-03-01T06:53:19;152298.34;;;4.73;96.10
10127;BME280;13080;42.608;23.362;2023-03-01T06:55:46;152319.03;;;4.81;95.56
10127;BME280;13080;42.608;23.362;2023-03-01T06:58:14;152324.22;;;4.83;95.37
10127;BME280;13080;42.608;23.362;2023-03-01T07:00:41;152351.38;;;4.94;95.42
10127;BME280;13080;42.608;23.362;2023-03-01T07:03:08;152372.03;;;5.02;94.74
10127;BME280;13080;42.608;23.362;2023-03-01T07:05:35;152366.91;;;5.00;95.43
10127;BME280;13080;42.608;23.362;2023-03-01T07:08:02;152356.53;;;4.96;94.66
10127;BME280;13080;42.608;23.362;2023-03-01T07:10:29;152346.19;;;4.92;95.11
10127;BME280;13080;42.608;23.362;2023-03-01T07:12:56;152344.91;;;4.91;94.73
10127;BME280;13080;42.608;23.362;2023-03-01T07:15:25;152363.00;;;4.98;94.32
10127;BME280;13080;42.608;23.362;2023-03-01T07:17:52;152372.03;;;5.02;95.19
10127;BME280;13080;42.608;23.362;2023-03-01T07:20:20;152418.63;;;5.20;93.59
10127;BME280;13080;42.608;23.362;2023-03-01T07:22:49;152439.28;;;5.29;92.99
10127;BME280;13080;42.608;23.362;2023-03-01T07:25:16;152431.53;;;5.26;93.78
10127;BME280;13080;42.608;23.362;2023-03-01T07:27:43;152422.47;;;5.22;93.22
10127;BME280;13080;42.608;23.362;2023-03-01T07:30:10;152435.44;;;5.27;92.45
10127;BME280;13080;42.608;23.362;2023-03-01T07:32:39;152431.53;;;5.26;93.14
10127;BME280;13080;42.608;23.362;2023-03-01T07:35:06;152410.84;;;5.17;92.71
10127;BME280;13080;42.608;23.362;2023-03-01T07:37:33;152427.66;;;5.24;92.80
10127;BME280;13080;42.608;23.362;2023-03-01T07:40:00;152444.47;;;5.31;92.36
10127;BME280;13080;42.608;23.362;2023-03-01T07:42:26;152404.38;;;5.15;92.81
10127;BME280;13080;42.608;23.362;2023-03-01T07:44:53;152417.28;;;5.20;93.03
10127;BME280;13080;42.608;23.362;2023-03-01T07:47:20;152445.75;;;5.31;92.24
10127;BME280;13080;42.608;23.362;2023-03-01T07:49:48;152447.06;;;5.32;91.39
10127;BME280;13080;42.608;23.362;2023-03-01T07:52:14;152489.72;;;5.49;91.29
10127;BME280;13080;42.608;23.362;2023-03-01T07:54:42;152482.00;;;5.46;90.75
10127;BME280;13080;42.608;23.362;2023-03-01T07:57:09;152480.72;;;5.45;90.60
10127;BME280;13080;42.608;23.362;2023-03-01T07:59:36;152496.19;;;5.51;90.41
10127;BME280;13080;42.608;23.362;2023-03-01T08:02:03;152507.84;;;5.56;90.27
10127;BME280;13080;42.608;23.362;2023-03-01T08:04:30;152535.03;;;5.67;90.43
10127;BME280;13080;42.608;23.362;2023-03-01T08:06:58;152523.38;;;5.62;90.25
10127;BME280;13080;42.608;23.362;2023-03-01T08:09:25;152516.91;;;5.59;89.62
10127;BME280;13080;42.608;23.362;2023-03-01T08:11:52;152498.81;;;5.52;90.32
10127;BME280;13080;42.608;23.362;2023-03-01T08:14:19;152447.06;;;5.32;90.65
10127;BME280;13080;42.608;23.362;2023-03-01T08:16:49;152445.75;;;5.31;90.75
10127;BME280;13080;42.608;23.362;2023-03-01T08:19:16;152431.53;;;5.26;91.00
10127;BME280;13080;42.608;23.362;2023-03-01T08:21:42;152456.09;;;5.35;90.93
10127;BME280;13080;42.608;23.362;2023-03-01T08:24:11;152483.28;;;5.46;92.17
10127;BME280;13080;42.608;23.362;2023-03-01T08:26:38;152519.47;;;5.60;90.63
10127;BME280;13080;42.608;23.362;2023-03-01T08:29:05;152504.00;;;5.54;89.73
10127;BME280;13080;42.608;23.362;2023-03-01T08:31:33;152537.63;;;5.68;89.28
10127;BME280;13080;42.608;23.362;2023-03-01T08:34:03;152520.81;;;5.61;89.36
10127;BME280;13080;42.608;23.362;2023-03-01T08:36:33;152549.28;;;5.72;89.51
10127;BME280;13080;42.608;23.362;2023-03-01T08:39:01;152563.47;;;5.78;88.85
10127;BME280;13080;42.608;23.362;2023-03-01T08:41:29;152553.13;;;5.74;88.39
10127;BME280;13080;42.608;23.362;2023-03-01T08:43:56;152590.66;;;5.89;88.92
10127;BME280;13080;42.608;23.362;2023-03-01T08:46:25;152610.09;;;5.96;88.41
10127;BME280;13080;42.608;23.362;2023-03-01T08:48:52;152639.91;;;6.08;86.92
10127;BME280;13080;42.608;23.362;2023-03-01T08:51:20;152623.09;;;6.01;86.86
10127;BME280;13080;42.608;23.362;2023-03-01T08:53:47;152603.59;;;5.94;87.85
10127;BME280;13080;42.608;23.362;2023-03-01T08:56:15;152614.00;;;5.98;87.41
10127;BME280;13080;42.608;23.362;2023-03-01T08:58:45;152643.75;;;6.10;86.55
10127;BME280;13080;42.608;23.362;2023-03-01T09:01:14;152607.53;;;5.95;87.37
10127;BME280;13080;42.608;23.362;2023-03-01T09:03:41;152599.75;;;5.92;86.50
10127;BME280;13080;42.608;23.362;2023-03-01T09:06:08;152573.84;;;5.82;87.49
10127;BME280;13080;42.608;23.362;2023-03-01T09:08:36;152597.13;;;5.91;87.90
10127;BME280;13080;42.608;23.362;2023-03-01T09:11:05;152614.00;;;5.98;88.28
10127;BME280;13080;42.608;23.362;2023-03-01T09:13:32;152664.47;;;6.18;86.89
10127;BME280;13080;42.608;23.362;2023-03-01T09:16:03;152602.31;;;5.93;87.27
10127;BME280;13080;42.608;23.362;2023-03-01T09:18:31;152617.91;;;5.99;87.45
10127;BME280;13080;42.608;23.362;2023-03-01T09:21:02;152645.09;;;6.10;86.89
10127;BME280;13080;42.608;23.362;2023-03-01T09:23:33;152651.56;;;6.13;86.73
10127;BME280;13080;42.608;23.362;2023-03-01T09:26:00;152650.28;;;6.12;86.54
10127;BME280;13080;42.608;23.362;2023-03-01T09:28:26;152638.63;;;6.08;86.30
10127;BME280;13080;42.608;23.362;2023-03-01T09:30:53;152610.09;;;5.96;86.66
10127;BME280;13080;42.608;23.362;2023-03-01T09:33:21;152560.91;;;5.77;87.50
10127;BME280;13080;42.608;23.362;2023-03-01T09:35:48;152586.78;;;5.87;87.19
10127;BME280;13080;42.608;23.362;2023-03-01T09:38:15;152555.75;;;5.75;88.42
10127;BME280;13080;42.608;23.362;2023-03-01T09:40:43;152553.13;;;5.74;88.54
10127;BME280;13080;42.608;23.362;2023-03-01T09:43:20;152502.72;;;5.54;88.85
10127;BME280;13080;42.608;23.362;2023-03-01T09:45:52;152527.28;;;5.63;88.52
10127;BME280;13080;42.608;23.362;2023-03-01T09:48:26;152571.28;;;5.81;88.42
10127;BME280;13080;42.608;23.362;2023-03-01T09:50:54;152584.19;;;5.86;86.87
10127;BME280;13080;42.608;23.362;2023-03-01T09:53:23;152614.00;;;5.98;87.52
10127;BME280;13080;42.608;23.362;2023-03-01T09:55:55;152621.81;;;6.01;88.29
10127;BME280;13080;42.608;23.362;2023-03-01T09:58:49;152636.00;;;6.07;86.66
10127;BME280;13080;42.608;23.362;2023-03-01T10:01:30;152638.63;;;6.08;87.47
10127;BME280;13080;42.608;23.362;2023-03-01T10:04:11;152656.72;;;6.15;87.75
10127;BME280;13080;42.608;23.362;2023-03-01T10:06:44;152680.03;;;6.24;86.40
10127;BME280;13080;42.608;23.362;2023-03-01T10:09:16;152695.56;;;6.30;86.37
10127;BME280;13080;42.608;23.362;2023-03-01T10:11:47;152687.78;;;6.27;86.60
10127;BME280;13080;42.608;23.362;2023-03-01T10:14:22;152704.59;;;6.34;86.21
10127;BME280;13080;42.608;23.362;2023-03-01T10:16:54;152687.78;;;6.27;86.53
10127;BME280;13080;42.608;23.362;2023-03-01T10:19:30;152722.72;;;6.41;86.51
10127;BME280;13080;42.608;23.362;2023-03-01T10:22:03;152695.56;;;6.30;86.79
10127;BME280;13080;42.608;23.362;2023-03-01T10:24:32;152716.25;;;6.38;86.47
10127;BME280;13080;42.608;23.362;2023-03-01T10:27:05;152702.03;;;6.33;85.53
10127;BME280;13080;42.608;23.362;2023-03-01T10:29:39;152725.34;;;6.42;86.79
10127;BME280;13080;42.608;23.362;2023-03-01T10:32:06;152757.72;;;6.55;85.83
10127;BME280;13080;42.608;23.362;2023-03-01T10:34:35;152775.84;;;6.62;86.76
10127;BME280;13080;42.608;23.362;2023-03-01T10:37:09;152819.88;;;6.79;84.81
10127;BME280;13080;42.608;23.362;2023-03-01T10:39:37;152830.19;;;6.83;84.59
10127;BME280;13080;42.608;23.362;2023-03-01T10:42:05;152822.44;;;6.80;85.09
10127;BME280;13080;42.608;23.362;2023-03-01T10:44:41;152843.19;;;6.89;85.22
10127;BME280;13080;42.608;23.362;2023-03-01T10:47:20;152888.50;;;7.06;82.75
10127;BME280;13080;42.608;23.362;2023-03-01T10:49:52;152894.97;;;7.09;83.50
10127;BME280;13080;42.608;23.362;2023-03-01T10:52:21;152941.59;;;7.27;83.62
10127;BME280;13080;42.608;23.362;2023-03-01T10:54:54;152963.63;;;7.36;81.87
10127;BME280;13080;42.608;23.362;2023-03-01T10:57:39;153023.22;;;7.60;81.73
10127;BME280;13080;42.608;23.362;2023-03-01T11:00:19;153032.28;;;7.63;79.87
10127;BME280;13080;42.608;23.362;2023-03-01T11:02:49;153001.22;;;7.51;80.66
10127;BME280;13080;42.608;23.362;2023-03-01T11:05:22;152994.69;;;7.48;81.38
10127;BME280;13080;42.608;23.362;2023-03-01T11:07:51;153019.34;;;7.58;80.19
10127;BME280;13080;42.608;23.362;2023-03-01T11:10:21;153015.44;;;7.57;80.30
10127;BME280;13080;42.608;23.362;2023-03-01T11:12:48;152957.16;;;7.34;81.31
10127;BME280;13080;42.608;23.362;2023-03-01T11:15:24;152927.31;;;7.22;80.90
10127;BME280;13080;42.608;23.362;2023-03-01T11:17:51;152850.94;;;6.92;82.20
10127;BME280;13080;42.608;23.362;2023-03-01T11:20:25;152831.53;;;6.84;82.52
10127;BME280;13080;42.608;23.362;2023-03-01T11:22:55;152765.47;;;6.58;83.64
10127;BME280;13080;42.608;23.362;2023-03-01T11:25:25;152738.28;;;6.47;85.22
10127;BME280;13080;42.608;23.362;2023-03-01T11:27:54;152765.47;;;6.58;84.59
10127;BME280;13080;42.608;23.362;2023-03-01T11:30:25;152725.34;;;6.42;85.30
10127;BME280;13080;42.608;23.362;2023-03-01T11:33:03;152683.94;;;6.26;86.50
10127;BME280;13080;42.608;23.362;2023-03-01T11:35:34;152692.97;;;6.29;86.70
10127;BME280;13080;42.608;23.362;2023-03-01T11:38:12;152730.53;;;6.44;86.30
10127;BME280;13080;42.608;23.362;2023-03-01T11:40:45;152774.56;;;6.61;86.09
10127;BME280;13080;42.608;23.362;2023-03-01T11:43:19;152764.19;;;6.57;85.02
10127;BME280;13080;42.608;23.362;2023-03-01T11:45:56;152771.94;;;6.60;85.98
10127;BME280;13080;42.608;23.362;2023-03-01T11:48:39;152783.59;;;6.65;85.45
10127;BME280;13080;42.608;23.362;2023-03-01T11:51:15;152755.09;;;6.54;85.16
10127;BME280;13080;42.608;23.362;2023-03-01T11:53:57;152735.72;;;6.46;85.87
10127;BME280;13080;42.608;23.362;2023-03-01T11:56:30;152731.81;;;6.44;86.16
10127;BME280;13080;42.608;23.362;2023-03-01T11:59:43;152730.53;;;6.44;85.73
10127;BME280;13080;42.608;23.362;2023-03-01T12:08:27;152915.66;;;7.17;83.89
10127;BME280;13080;42.608;23.362;2023-03-01T12:11:03;152954.53;;;7.33;83.06
10127;BME280;13080;42.608;23.362;2023-03-01T12:14:04;153002.50;;;7.52;80.92
10127;BME280;13080;42.608;23.362;2023-03-01T12:16:46;152911.81;;;7.16;81.69
10127;BME280;13080;42.608;23.362;2023-03-01T12:19:33;152972.66;;;7.40;81.71
10127;BME280;13080;42.608;23.362;2023-03-01T12:22:17;153001.22;;;7.51;81.41
10127;BME280;13080;42.608;23.362;2023-03-01T12:28:17;152997.31;;;7.49;81.24
10127;BME280;13080;42.608;23.362;2023-03-01T12:31:00;153011.53;;;7.55;80.80
10127;BME280;13080;42.608;23.362;2023-03-01T12:33:42;153001.22;;;7.51;80.43
10127;BME280;13080;42.608;23.362;2023-03-01T12:36:25;152983.03;;;7.44;81.30
10127;BME280;13080;42.608;23.362;2023-03-01T12:39:06;153002.50;;;7.52;81.36
10127;BME280;13080;42.608;23.362;2023-03-01T12:41:48;153066.00;;;7.77;79.63
10127;BME280;13080;42.608;23.362;2023-03-01T12:44:31;153064.72;;;7.76;79.89
10127;BME280;13080;42.608;23.362;2023-03-01T12:47:10;153089.31;;;7.86;79.46
10127;BME280;13080;42.608;23.362;2023-03-01T12:49:41;153084.13;;;7.84;80.41
10127;BME280;13080;42.608;23.362;2023-03-01T12:52:14;152998.59;;;7.50;81.20
10127;BME280;13080;42.608;23.362;2023-03-01T12:54:44;153023.22;;;7.60;81.49
10127;BME280;13080;42.608;23.362;2023-03-01T12:57:17;153032.28;;;7.63;80.76
10127;BME280;13080;42.608;23.362;2023-03-01T12:59:54;152989.50;;;7.46;80.84
10127;BME280;13080;42.608;23.362;2023-03-01T13:02:31;152989.50;;;7.46;80.82
10127;BME280;13080;42.608;23.362;2023-03-01T13:05:18;152975.28;;;7.41;80.42
10127;BME280;13080;42.608;23.362;2023-03-01T13:07:53;152923.47;;;7.20;81.91
10127;BME280;13080;42.608;23.362;2023-03-01T13:10:28;152957.16;;;7.34;81.69